createdAt,value
2017-07-04T00:02:11.542Z,62.10
2017-07-04T00:04:37.608Z,62.70
2017-07-04T00:07:03.653Z,63.10
2017-07-04T00:09:30.418Z,63.50
2017-07-04T00:11:56.491Z,62.70
2017-07-04T00:14:22.528Z,62.60
2017-07-04T00:16:48.576Z,62.80
2017-07-04T00:19:14.588Z,62.70
2017-07-04T00:21:40.643Z,62.80
2017-07-04T00:24:06.700Z,63.30
2017-07-04T00:26:32.781Z,63.60
2017-07-04T00:28:58.870Z,63.80
2017-07-04T00:31:24.910Z,63.90
2017-07-04T00:33:50.935Z,64.30
2017-07-04T00:36:17.101Z,64.80
2017-07-04T00:38:43.160Z,65.00
2017-07-04T00:41:09.208Z,65.20
2017-07-04T00:43:35.256Z,65.40
2017-07-04T00:46:01.288Z,65.30
2017-07-04T00:48:27.340Z,65.30
2017-07-04T00:50:53.383Z,65.20
2017-07-04T00:53:19.463Z,65.20
2017-07-04T00:55:45.487Z,65.60
2017-07-04T00:58:11.590Z,65.70
2017-07-04T01:00:38.681Z,65.70
2017-07-04T01:03:04.753Z,65.70
2017-07-04T01:05:30.807Z,66.10
2017-07-04T01:07:56.852Z,66.50
2017-07-04T01:10:22.899Z,67.60
2017-07-04T01:12:48.938Z,67.10
2017-07-04T01:15:15.005Z,67.30
2017-07-04T01:17:41.059Z,68.50
2017-07-04T01:20:07.144Z,69.10
2017-07-04T01:22:33.212Z,70.50
2017-07-04T01:24:59.278Z,72.40
2017-07-04T01:27:26.039Z,73.20
2017-07-04T01:29:52.103Z,73.20
2017-07-04T01:32:18.180Z,73.40
2017-07-04T01:34:44.236Z,74.30
2017-07-04T01:37:10.294Z,75.00
2017-07-04T01:39:36.351Z,74.20
2017-07-04T01:42:02.448Z,73.70
2017-07-04T01:44:28.483Z,73.40
2017-07-04T01:46:54.542Z,73.20
2017-07-04T01:49:20.587Z,73.40
2017-07-04T01:51:46.652Z,73.40
2017-07-04T01:54:12.701Z,73.80
2017-07-04T01:56:39.134Z,73.40
2017-07-04T01:59:05.158Z,73.80
2017-07-04T02:01:31.187Z,74.00
2017-07-04T02:03:57.243Z,74.80
2017-07-04T02:06:23.283Z,74.80
2017-07-04T02:08:49.356Z,75.10
2017-07-04T02:11:15.386Z,74.90
2017-07-04T02:13:41.446Z,74.80
2017-07-04T02:16:07.478Z,74.70
2017-07-04T02:18:33.521Z,74.30
2017-07-04T02:20:59.563Z,74.10
2017-07-04T02:23:25.614Z,74.00
2017-07-04T02:25:51.660Z,74.10
2017-07-04T02:28:17.687Z,73.60
2017-07-04T02:30:43.746Z,73.60
2017-07-04T02:33:09.809Z,74.10
2017-07-04T02:35:35.928Z,74.10
2017-07-04T02:38:02.000Z,74.10
2017-07-04T02:40:28.096Z,74.70
2017-07-04T02:42:54.145Z,74.50
2017-07-04T02:45:20.205Z,74.90
2017-07-04T02:47:46.255Z,75.30
2017-07-04T02:50:12.366Z,75.30
2017-07-04T02:52:38.422Z,74.80
2017-07-04T02:55:04.492Z,75.10
2017-07-04T02:57:30.555Z,75.50
2017-07-04T02:59:56.587Z,75.80
2017-07-04T03:02:22.668Z,76.30
2017-07-04T03:04:48.726Z,76.40
2017-07-04T03:07:14.767Z,76.50
2017-07-04T03:09:40.862Z,76.60
2017-07-04T03:12:06.949Z,78.40
2017-07-04T03:14:33.043Z,78.90
2017-07-04T03:16:59.837Z,79.00
2017-07-04T03:19:25.872Z,79.00
2017-07-04T03:21:51.915Z,80.00
2017-07-04T03:24:17.989Z,79.20
2017-07-04T03:26:44.106Z,78.60
2017-07-04T03:29:10.181Z,78.20
2017-07-04T03:31:36.248Z,77.80
2017-07-04T03:34:02.281Z,77.80
2017-07-04T03:36:28.363Z,77.80
2017-07-04T03:38:54.393Z,77.80
2017-07-04T03:41:20.456Z,78.40
2017-07-04T03:43:46.568Z,79.20
2017-07-04T03:46:12.652Z,80.00
2017-07-04T03:48:38.685Z,81.20
2017-07-04T03:51:04.724Z,81.90
2017-07-04T03:53:31.544Z,82.00
2017-07-04T03:55:57.585Z,82.00
2017-07-04T03:58:23.687Z,82.10
2017-07-04T04:00:49.743Z,82.70
2017-07-04T04:03:15.828Z,82.70
2017-07-04T04:05:41.896Z,82.20
2017-07-04T04:08:07.978Z,81.80
2017-07-04T04:10:34.029Z,82.00
2017-07-04T04:13:00.105Z,81.70
2017-07-04T04:15:26.189Z,81.40
2017-07-04T04:17:52.223Z,81.20
2017-07-04T04:20:18.332Z,80.80
2017-07-04T04:22:44.373Z,80.40
2017-07-04T04:25:10.453Z,80.20
2017-07-04T04:27:36.501Z,79.90
2017-07-04T04:30:02.601Z,79.60
2017-07-04T04:32:28.638Z,79.40
2017-07-04T04:34:54.676Z,79.20
2017-07-04T04:37:20.695Z,79.10
2017-07-04T04:39:46.737Z,79.20
2017-07-04T04:42:13.540Z,78.60
2017-07-04T04:44:39.644Z,78.50
2017-07-04T04:47:05.735Z,78.50
2017-07-04T04:49:31.764Z,78.50
2017-07-04T04:51:57.808Z,78.40
2017-07-04T04:54:24.583Z,77.80
2017-07-04T04:56:50.630Z,77.80
2017-07-04T04:59:16.656Z,77.50
2017-07-04T05:01:42.700Z,77.20
2017-07-04T05:04:08.789Z,76.90
2017-07-04T05:06:34.862Z,76.40
2017-07-04T05:09:00.891Z,76.30
2017-07-04T05:11:26.942Z,75.80
2017-07-04T05:13:53.036Z,76.00
2017-07-04T05:16:19.192Z,74.70
2017-07-04T05:18:45.357Z,75.00
2017-07-04T05:21:12.225Z,75.20
2017-07-04T05:23:38.254Z,75.10
2017-07-04T05:26:04.300Z,75.00
2017-07-04T05:28:30.385Z,74.70
2017-07-04T05:30:56.447Z,74.10
2017-07-04T05:33:22.573Z,73.90
2017-07-04T05:35:55.117Z,74.10
2017-07-04T05:38:21.173Z,74.60
2017-07-04T05:40:47.232Z,73.80
2017-07-04T05:43:13.286Z,73.40
2017-07-04T05:45:39.315Z,73.20
2017-07-04T05:48:05.444Z,73.40
2017-07-04T05:50:31.470Z,73.20
2017-07-04T05:52:57.532Z,72.70
2017-07-04T05:55:24.372Z,71.40
2017-07-04T05:57:50.419Z,71.30
2017-07-04T06:00:17.220Z,70.90
2017-07-04T06:02:43.252Z,70.80
2017-07-04T06:05:09.311Z,70.50
2017-07-04T06:07:35.362Z,69.80
2017-07-04T06:10:01.467Z,69.70
2017-07-04T06:12:27.496Z,69.60
2017-07-04T06:14:53.541Z,69.40
2017-07-04T06:17:20.360Z,69.10
2017-07-04T06:19:47.120Z,69.60
2017-07-04T06:22:13.216Z,69.20
2017-07-04T06:24:39.256Z,69.10
2017-07-04T06:27:05.327Z,69.10
2017-07-04T06:29:32.117Z,68.40
2017-07-04T06:31:58.189Z,68.30
2017-07-04T06:34:24.232Z,67.60
2017-07-04T06:36:50.296Z,66.30
2017-07-04T06:39:16.360Z,65.20
2017-07-04T06:41:42.421Z,65.40
2017-07-04T06:44:09.195Z,65.40
2017-07-04T06:46:35.225Z,65.40
2017-07-04T06:49:01.264Z,65.20
2017-07-04T06:51:27.295Z,64.00
2017-07-04T06:53:53.349Z,63.90
2017-07-04T06:56:19.385Z,63.70
2017-07-04T06:58:45.431Z,63.30
2017-07-04T07:01:11.464Z,63.40
2017-07-04T07:03:37.546Z,63.60
2017-07-04T07:06:03.636Z,62.80
2017-07-04T07:08:30.434Z,62.10
2017-07-04T07:10:56.461Z,61.90
2017-07-04T07:13:22.525Z,61.90
2017-07-04T07:16:10.503Z,62.00
2017-07-04T07:18:36.550Z,61.60
2017-07-04T07:21:02.587Z,61.80
2017-07-04T07:23:28.628Z,61.10
2017-07-04T07:25:54.678Z,61.30
2017-07-04T07:28:20.774Z,61.20
2017-07-04T07:30:46.848Z,59.80
2017-07-04T07:33:12.974Z,60.00
2017-07-04T07:35:39.064Z,60.70
2017-07-04T07:38:05.210Z,60.00
2017-07-04T07:40:31.250Z,58.90
2017-07-04T07:42:57.288Z,58.90
2017-07-04T07:45:23.337Z,58.70
2017-07-04T07:47:50.105Z,59.50
2017-07-04T07:50:16.153Z,59.50
2017-07-04T07:52:42.172Z,58.50
2017-07-04T07:55:08.217Z,58.90
2017-07-04T07:57:34.249Z,58.90
2017-07-04T08:00:00.301Z,57.20
2017-07-04T08:02:26.339Z,57.40
2017-07-04T08:04:52.373Z,56.80
2017-07-04T08:07:18.436Z,56.00
2017-07-04T08:09:45.223Z,55.50
2017-07-04T08:12:11.308Z,55.50
2017-07-04T08:14:38.078Z,55.60
2017-07-04T08:17:06.145Z,55.50
2017-07-04T08:19:32.167Z,55.60
2017-07-04T08:22:16.225Z,54.80
2017-07-04T08:24:42.256Z,54.70
2017-07-04T08:27:08.315Z,54.50
2017-07-04T08:29:34.349Z,52.30
2017-07-04T08:32:19.024Z,52.90
2017-07-04T08:34:45.924Z,53.20
2017-07-04T08:37:11.951Z,53.20
2017-07-04T08:39:59.315Z,53.20
2017-07-04T08:42:25.370Z,53.70
2017-07-04T08:44:52.389Z,54.10
2017-07-04T08:47:18.474Z,53.30
2017-07-04T08:49:44.500Z,54.40
2017-07-04T08:52:10.559Z,53.70
2017-07-04T08:54:36.621Z,53.60
2017-07-04T08:57:02.641Z,53.90
2017-07-04T08:59:41.687Z,52.40
2017-07-04T09:02:08.458Z,52.00
2017-07-04T09:04:48.422Z,52.00
2017-07-04T09:07:14.515Z,51.80
2017-07-04T09:09:41.328Z,52.60
2017-07-04T09:12:09.428Z,52.10
2017-07-04T09:14:36.225Z,53.20
2017-07-04T09:17:02.266Z,53.20
2017-07-04T09:22:39.612Z,51.30
2017-07-04T09:25:06.430Z,51.40
2017-07-04T09:27:32.504Z,51.30
2017-07-04T09:29:58.555Z,51.60
2017-07-04T09:32:24.605Z,51.40
2017-07-04T09:34:50.705Z,51.50
2017-07-04T09:37:16.769Z,52.20
2017-07-04T09:39:42.812Z,52.00
2017-07-04T09:42:12.138Z,52.60
2017-07-04T09:44:38.939Z,49.70
2017-07-04T09:47:05.035Z,49.70
2017-07-04T09:49:31.083Z,49.90
2017-07-04T09:51:57.112Z,49.90
2017-07-04T09:54:41.442Z,48.80
2017-07-04T09:57:07.469Z,48.90
2017-07-04T09:59:48.978Z,49.30
2017-07-04T10:02:15.068Z,48.60
2017-07-04T10:04:43.979Z,48.20
2017-07-04T10:07:10.024Z,48.10
2017-07-04T10:09:36.867Z,48.30
2017-07-04T10:12:02.984Z,49.50
2017-07-04T10:14:29.388Z,50.80
2017-07-04T10:16:57.475Z,50.20
2017-07-04T10:19:23.516Z,50.80
2017-07-04T10:22:07.511Z,50.60
2017-07-04T10:27:27.596Z,47.90
2017-07-04T10:29:53.668Z,48.00
2017-07-04T10:32:23.367Z,47.80
2017-07-04T10:34:59.577Z,47.70
2017-07-04T10:37:26.610Z,47.80
2017-07-04T10:39:59.320Z,49.20
2017-07-04T10:42:25.343Z,49.10
2017-07-04T10:44:51.388Z,48.90
2017-07-04T10:47:28.224Z,48.10
2017-07-04T10:50:01.778Z,49.30
2017-07-04T10:52:27.813Z,49.20
2017-07-04T10:57:58.385Z,45.60
2017-07-04T11:00:26.240Z,44.00
2017-07-04T11:05:46.385Z,42.90
2017-07-04T11:11:18.120Z,43.40
2017-07-04T11:14:11.586Z,41.80
2017-07-04T11:16:38.737Z,41.60
2017-07-04T11:22:12.138Z,40.50
2017-07-04T11:24:38.184Z,40.50
2017-07-04T11:27:18.715Z,39.70
2017-07-04T11:29:49.455Z,40.10
2017-07-04T11:32:28.590Z,39.90
2017-07-04T11:35:00.960Z,40.30
2017-07-04T11:37:29.744Z,40.70
2017-07-04T11:40:10.661Z,40.70
2017-07-04T11:42:36.735Z,39.00
2017-07-04T11:45:17.360Z,38.50
2017-07-04T11:47:50.610Z,39.00
2017-07-04T11:50:20.014Z,38.60
2017-07-04T11:52:53.280Z,39.10
2017-07-04T11:55:21.397Z,39.00
2017-07-04T11:57:48.445Z,40.10
2017-07-04T12:00:24.047Z,40.00
2017-07-04T12:02:57.532Z,40.00
2017-07-04T12:05:30.893Z,39.70
2017-07-04T12:08:11.146Z,40.20
2017-07-04T12:10:38.181Z,38.40
2017-07-04T12:13:04.943Z,39.70
2017-07-04T12:15:43.272Z,39.10
2017-07-04T12:18:19.809Z,38.70
2017-07-04T12:20:53.040Z,37.60
2017-07-04T12:23:25.402Z,38.80
2017-07-04T12:25:51.481Z,38.10
2017-07-04T12:28:31.995Z,38.50
2017-07-04T12:31:08.345Z,37.50
2017-07-04T12:33:39.714Z,37.00
2017-07-04T12:36:09.089Z,36.90
2017-07-04T12:38:45.369Z,36.60
2017-07-04T12:41:18.004Z,37.20
2017-07-04T12:43:49.315Z,37.40
2017-07-04T12:46:20.224Z,37.70
2017-07-04T12:48:46.251Z,37.40
2017-07-04T12:51:26.005Z,37.70
2017-07-04T12:54:00.339Z,38.50
2017-07-04T12:56:34.658Z,39.90
2017-07-04T12:59:04.274Z,40.40
2017-07-04T13:01:41.316Z,40.50
2017-07-04T13:04:12.885Z,41.60
2017-07-04T13:06:46.174Z,41.10
2017-07-04T13:09:18.580Z,40.70
2017-07-04T13:11:51.841Z,40.70
2017-07-04T13:14:24.232Z,39.80
2017-07-04T13:16:56.623Z,40.00
2017-07-04T13:19:22.753Z,40.00
2017-07-04T13:21:55.316Z,39.60
2017-07-04T13:24:22.106Z,37.80
2017-07-04T13:26:48.983Z,37.70
2017-07-04T13:29:16.900Z,37.80
2017-07-04T13:34:35.052Z,37.90
2017-07-04T13:37:01.184Z,39.40
2017-07-04T13:39:30.508Z,40.10
2017-07-04T13:42:00.456Z,40.00
2017-07-04T13:47:32.332Z,40.90
2017-07-04T13:49:58.525Z,40.20
2017-07-04T13:52:33.188Z,42.20
2017-07-04T13:55:09.590Z,40.70
2017-07-04T13:57:37.677Z,37.60
2017-07-04T14:00:14.167Z,38.20
2017-07-04T14:02:46.523Z,40.10
2017-07-04T14:05:17.711Z,40.10
2017-07-04T14:07:43.812Z,39.70
2017-07-04T14:10:25.192Z,37.40
2017-07-04T14:12:51.310Z,36.80
2017-07-04T14:15:27.926Z,36.80
2017-07-04T14:18:00.230Z,38.40
2017-07-04T14:20:33.643Z,36.80
2017-07-04T14:23:10.868Z,36.80
2017-07-04T14:25:42.163Z,37.60
2017-07-04T14:28:12.513Z,36.70
2017-07-04T14:30:48.749Z,36.70
2017-07-04T14:33:20.127Z,35.90
2017-07-04T14:35:53.408Z,35.80
2017-07-04T14:38:22.932Z,36.40
2017-07-04T14:40:57.125Z,36.90
2017-07-04T14:43:30.405Z,35.90
2017-07-04T14:46:03.919Z,35.80
2017-07-04T14:48:30.869Z,35.20
2017-07-04T14:51:05.500Z,35.10
2017-07-04T14:53:35.836Z,33.90
2017-07-04T14:56:14.966Z,33.80
2017-07-04T14:58:48.288Z,34.20
2017-07-04T15:01:21.578Z,34.00
2017-07-04T15:03:55.828Z,34.40
2017-07-04T15:06:27.628Z,33.70
2017-07-04T15:08:59.827Z,34.60
2017-07-04T15:11:29.196Z,34.10
2017-07-04T15:14:01.896Z,34.40
2017-07-04T15:16:38.872Z,34.10
2017-07-04T15:19:11.157Z,35.10
2017-07-04T15:21:43.522Z,35.20
2017-07-04T15:24:09.667Z,36.70
2017-07-04T15:26:41.063Z,35.80
2017-07-04T15:29:13.253Z,36.90
2017-07-04T15:31:50.666Z,37.40
2017-07-04T15:34:16.745Z,37.20
2017-07-04T15:36:46.380Z,38.40
2017-07-04T15:39:16.625Z,38.00
2017-07-04T15:42:03.025Z,38.00
2017-07-04T15:44:33.553Z,37.80
2017-07-04T15:47:07.785Z,36.40
2017-07-04T15:49:41.267Z,37.40
2017-07-04T15:52:07.890Z,36.50
2017-07-04T15:54:48.755Z,37.00
2017-07-04T15:57:23.315Z,37.50
2017-07-04T15:59:53.712Z,36.90
2017-07-04T16:02:27.939Z,37.30
2017-07-04T16:04:58.380Z,37.30
2017-07-04T16:07:25.530Z,35.70
2017-07-04T16:10:06.796Z,35.40
2017-07-04T16:12:37.254Z,34.20
2017-07-04T16:15:08.610Z,34.20
2017-07-04T16:17:36.762Z,33.10
2017-07-04T16:20:17.916Z,33.70
2017-07-04T16:22:50.422Z,34.20
2017-07-04T16:25:16.490Z,34.50
2017-07-04T16:27:52.921Z,34.50
2017-07-04T16:30:28.167Z,36.40
2017-07-04T16:35:45.416Z,35.70
2017-07-04T16:38:14.625Z,36.30
2017-07-04T16:40:40.704Z,38.50
2017-07-04T16:43:07.485Z,38.10
2017-07-04T16:45:37.318Z,38.00
2017-07-04T16:48:04.428Z,37.80
2017-07-04T16:50:38.861Z,37.00
2017-07-04T16:53:24.271Z,38.40
2017-07-04T16:55:57.744Z,37.50
2017-07-04T16:58:30.103Z,36.50
2017-07-04T17:00:59.704Z,37.10
2017-07-04T17:03:34.853Z,38.20
2017-07-04T17:06:05.091Z,38.20
2017-07-04T17:08:41.423Z,37.40
2017-07-04T17:11:13.910Z,37.40
2017-07-04T17:13:46.308Z,37.40
2017-07-04T17:16:17.554Z,37.30
2017-07-04T17:18:51.770Z,38.70
2017-07-04T17:21:25.159Z,38.10
2017-07-04T17:23:59.404Z,39.50
2017-07-04T17:26:25.549Z,39.40
2017-07-04T17:29:05.145Z,39.70
2017-07-04T17:31:36.590Z,40.40
2017-07-04T17:34:02.725Z,38.70
2017-07-04T17:36:29.126Z,39.00
2017-07-04T17:39:09.130Z,39.00
2017-07-04T17:41:38.688Z,39.30
2017-07-04T17:44:19.826Z,39.40
2017-07-04T17:46:50.247Z,39.40
2017-07-04T17:49:16.381Z,39.00
2017-07-04T17:51:57.843Z,39.60
2017-07-04T17:54:30.338Z,39.90
2017-07-04T17:57:03.652Z,40.40
2017-07-04T17:59:37.830Z,41.40
2017-07-04T18:02:09.313Z,41.60
2017-07-04T18:04:42.444Z,41.20
2017-07-04T18:07:14.836Z,40.20
2017-07-04T18:09:47.916Z,39.40
2017-07-04T18:12:20.334Z,40.00
2017-07-04T18:14:52.565Z,41.60
2017-07-04T18:17:25.992Z,40.30
2017-07-04T18:19:58.256Z,41.10
2017-07-04T18:22:31.671Z,42.70
2017-07-04T18:25:03.938Z,43.30
2017-07-04T18:27:34.286Z,41.90
2017-07-04T18:30:06.570Z,43.20
2017-07-04T18:32:42.885Z,43.10
2017-07-04T18:35:12.281Z,42.90
2017-07-04T18:37:48.471Z,43.90
2017-07-04T18:40:20.917Z,43.60
2017-07-04T18:42:53.434Z,44.80
2017-07-04T18:45:22.738Z,44.80
2017-07-04T18:47:59.328Z,44.50
2017-07-04T18:50:29.751Z,45.20
2017-07-04T18:52:55.869Z,45.70
2017-07-04T18:55:27.379Z,46.00
2017-07-04T18:58:00.604Z,46.50
2017-07-04T19:00:34.959Z,47.20
2017-07-04T19:03:01.156Z,47.10
2017-07-04T19:05:28.519Z,47.60
2017-07-04T19:07:54.633Z,47.70
2017-07-04T19:10:28.159Z,48.30
2017-07-04T19:13:00.642Z,48.20
2017-07-04T19:15:37.064Z,48.80
2017-07-04T19:18:05.178Z,49.20
2017-07-04T19:20:32.378Z,49.50
2017-07-04T19:23:21.791Z,49.90
2017-07-04T19:26:10.530Z,49.90
2017-07-04T19:28:44.336Z,50.40
2017-07-04T19:31:12.641Z,50.40
2017-07-04T19:33:39.595Z,50.60
2017-07-04T19:36:18.411Z,51.30
2017-07-04T19:38:46.564Z,51.50
2017-07-04T19:41:13.749Z,53.30
2017-07-04T19:43:53.485Z,52.80
2017-07-04T19:46:25.315Z,52.00
2017-07-04T19:48:58.239Z,52.40
2017-07-04T19:51:25.402Z,51.90
2017-07-04T19:54:04.800Z,51.90
2017-07-04T19:56:41.165Z,52.30
2017-07-04T19:59:13.533Z,52.30
2017-07-04T20:01:49.868Z,52.30
2017-07-04T20:04:18.704Z,53.60
2017-07-04T20:06:55.259Z,53.50
2017-07-04T20:09:27.636Z,53.40
2017-07-04T20:11:53.718Z,53.40
2017-07-04T20:14:30.342Z,53.20
2017-07-04T20:17:06.760Z,53.30
2017-07-04T20:19:39.176Z,54.40
2017-07-04T20:22:12.482Z,54.20
2017-07-04T20:24:44.862Z,54.20
2017-07-04T20:27:17.367Z,54.40
2017-07-04T20:29:50.829Z,55.20
2017-07-04T20:32:23.024Z,55.20
2017-07-04T20:34:54.569Z,56.30
2017-07-04T20:37:30.819Z,57.20
2017-07-04T20:40:02.177Z,57.20
2017-07-04T20:42:36.419Z,57.50
2017-07-04T20:45:05.913Z,58.30
2017-07-04T20:47:40.068Z,59.10
2017-07-04T20:50:14.316Z,59.70
2017-07-04T20:52:48.653Z,61.00
2017-07-04T20:55:16.575Z,61.70
2017-07-04T20:57:51.181Z,61.80
2017-07-04T21:00:24.443Z,62.30
2017-07-04T21:02:53.935Z,63.00
2017-07-04T21:05:19.977Z,63.50
2017-07-04T21:07:46.164Z,63.90
2017-07-04T21:10:19.337Z,64.70
2017-07-04T21:12:55.771Z,64.90
2017-07-04T21:15:39.211Z,65.10
2017-07-04T21:18:12.695Z,63.60
2017-07-04T21:20:47.001Z,64.70
2017-07-04T21:23:19.172Z,65.30
2017-07-04T21:25:52.698Z,65.10
2017-07-04T21:28:25.946Z,65.10
2017-07-04T21:30:55.659Z,67.10
2017-07-04T21:33:30.607Z,67.00
2017-07-04T21:36:03.087Z,68.60
2017-07-04T21:38:37.410Z,70.10
2017-07-04T21:49:59.356Z,69.80
2017-07-04T21:52:36.858Z,69.80
2017-07-04T21:57:56.750Z,72.30
2017-07-04T22:00:22.877Z,72.10
2017-07-04T22:02:49.786Z,71.20
2017-07-04T22:05:16.593Z,71.70
2017-07-04T22:07:57.838Z,71.70
2017-07-04T22:10:24.104Z,71.50
2017-07-04T22:12:50.188Z,71.90
2017-07-04T22:15:17.021Z,72.30
2017-07-04T22:17:43.879Z,71.90
2017-07-04T22:20:19.347Z,71.90
2017-07-04T22:22:45.707Z,71.90
2017-07-04T22:25:11.789Z,72.00
2017-07-04T22:27:40.980Z,74.20
2017-07-04T22:30:07.066Z,74.20
2017-07-04T22:32:33.160Z,74.70
2017-07-04T22:35:00.004Z,75.50
2017-07-04T22:43:14.231Z,75.10
2017-07-04T22:45:40.305Z,75.10
2017-07-04T22:48:09.351Z,75.10
2017-07-04T22:50:35.426Z,75.10
2017-07-04T22:53:01.541Z,75.60
2017-07-04T22:58:38.447Z,75.30
2017-07-04T23:01:05.251Z,76.70
2017-07-04T23:03:31.304Z,76.70
2017-07-04T23:05:57.355Z,77.20
2017-07-04T23:08:24.208Z,79.40
2017-07-04T23:10:50.992Z,80.50
2017-07-04T23:13:17.120Z,80.50
2017-07-04T23:15:43.174Z,82.40
2017-07-04T23:18:09.259Z,82.90
2017-07-04T23:20:35.372Z,83.10
2017-07-04T23:23:02.179Z,83.20
2017-07-04T23:25:28.250Z,83.20
2017-07-04T23:27:55.087Z,80.10
2017-07-04T23:30:21.135Z,80.00
2017-07-04T23:32:47.213Z,81.60
2017-07-04T23:35:13.324Z,83.40
2017-07-04T23:37:39.419Z,84.30
2017-07-04T23:40:06.246Z,81.20
2017-07-04T23:42:32.308Z,81.10
2017-07-04T23:44:58.371Z,80.40
2017-07-04T23:47:24.483Z,79.80
2017-07-04T23:49:50.573Z,78.80
2017-07-04T23:52:16.625Z,78.50
2017-07-04T23:54:42.690Z,76.70
2017-07-04T23:57:08.741Z,76.60
2017-07-04T23:59:34.799Z,77.20
